Station History

Weather Underground - logo

Station Historical Data
Daily Summary for February 11, 2018 Units:  Metric    English   Both
« Previous Day
Next Day »
Daily Weekly Monthly Yearly Custom
  High: Low: Average:
Temperature: 21 °C 4.9 °C 12.1 °C
Dew Point: 7.2 °C -0.6 °C 4.4 °C
Humidity: 91 % 27 % 64 %
Wind Speed: 9.3 km/h 0 km/h 1.3 km/h
Wind Gust: 9.3 km/h - -
Wind:- - SW
Pressure: 1016.5 hPa 1006.3 hPa -
Precipitation: 0 mm    
Historical Graphs
 
 
Tabular Data for February 11, 2018
Time Temperature Dew Point Pressure Wind Wind Speed Wind Gust Humidity Rainfall Rate (Hourly)
00:00 9.3 °C 5.5 °C 1013.8 hPa Calm     77 % 0 mm
00:05 9.2 °C 5.4 °C 1013.8 hPa Calm     77 % 0 mm
00:10 9.2 °C 5.6 °C 1013.8 hPa Calm     78 % 0 mm
00:15 9.1 °C 5.4 °C 1013.8 hPa Calm     78 % 0 mm
00:20 8.9 °C 5.3 °C 1013.8 hPa Calm     78 % 0 mm
00:25 8.8 °C 5.2 °C 1013.8 hPa Calm     78 % 0 mm
00:30 8.7 °C 5.1 °C 1013.8 hPa Calm     78 % 0 mm
00:35 8.4 °C 5 °C 1013.8 hPa Calm     79 % 0 mm
00:40 8.3 °C 5.2 °C 1013.8 hPa Calm     81 % 0 mm
00:45 8.3 °C 5.1 °C 1013.8 hPa Calm     80 % 0 mm
00:50 8.3 °C 5.1 °C 1013.8 hPa Calm     80 % 0 mm
00:55 8.2 °C 5 °C 1013.8 hPa Calm     80 % 0 mm
01:00 8 °C 4.8 °C 1013.8 hPa Calm     80 % 0 mm
01:05 7.8 °C 4.8 °C 1014.1 hPa Calm     81 % 0 mm
01:10 7.6 °C 4.5 °C 1014.1 hPa Calm     81 % 0 mm
01:15 7.4 °C 4.5 °C 1014.1 hPa Calm     82 % 0 mm
01:20 7.3 °C 4.4 °C 1014.1 hPa Calm     82 % 0 mm
01:25 7.3 °C 4.4 °C 1014.4 hPa Calm     82 % 0 mm
01:30 7.2 °C 4.4 °C 1014.4 hPa Calm     83 % 0 mm
01:35 7 °C 4.3 °C 1014.4 hPa Calm     83 % 0 mm
01:40 6.9 °C 4.4 °C 1014.4 hPa Calm     84 % 0 mm
01:45 7 °C 4.5 °C 1014.4 hPa Calm     84 % 0 mm
01:50 7 °C 4.5 °C 1014.4 hPa Calm     84 % 0 mm
01:55 7.1 °C 4.6 °C 1014.8 hPa Calm     84 % 0 mm
02:00 7 °C 4.5 °C 1014.8 hPa Calm     84 % 0 mm
02:05 6.9 °C 4.4 °C 1014.8 hPa Calm     84 % 0 mm
02:10 7.1 °C 4.6 °C 1014.8 hPa Calm     84 % 0 mm
02:15 7.2 °C 4.4 °C 1015.1 hPa NE 1.9 km/h 1.9 km/h 83 % 0 mm
02:20 7.3 °C 4.6 °C 1015.1 hPa Calm     83 % 0 mm
02:25 7.5 °C 4.6 °C 1015.1 hPa NE 1.9 km/h 1.9 km/h 82 % 0 mm
02:30 7.6 °C 4.7 °C 1015.1 hPa NE 1.9 km/h   82 % 0 mm
02:35 7.6 °C 4.9 °C 1015.1 hPa NE 1.9 km/h 1.9 km/h 83 % 0 mm
02:40 7.5 °C 4.8 °C 1015.1 hPa NE 1.9 km/h   83 % 0 mm
02:45 7.5 °C 4.8 °C 1015.1 hPa Calm     83 % 0 mm
02:50 7.4 °C 4.7 °C 1015.1 hPa Calm     83 % 0 mm
02:55 7.4 °C 4.9 °C 1015.1 hPa NE 1.9 km/h   84 % 0 mm
03:00 7.5 °C 5.2 °C 1015.1 hPa Calm     85 % 0 mm
03:05 7.6 °C 5.2 °C 1015.1 hPa ESE 1.9 km/h 1.9 km/h 85 % 0 mm
03:10 7.5 °C 5.2 °C 1014.8 hPa Calm     85 % 0 mm
03:15 7.4 °C 5.1 °C 1015.1 hPa ESE 3.7 km/h 3.7 km/h 85 % 0 mm
03:20 7.4 °C 5.1 °C 1014.8 hPa ESE 1.9 km/h 1.9 km/h 85 % 0 mm
03:25 7.4 °C 4.8 °C 1015.1 hPa ESE 1.9 km/h 1.9 km/h 84 % 0 mm
03:30 7.4 °C 4.9 °C 1015.1 hPa ESE 1.9 km/h 1.9 km/h 84 % 0 mm
03:35 7.4 °C 4.9 °C 1015.5 hPa Calm     84 % 0 mm
03:40 7.3 °C 5 °C 1015.5 hPa ESE 1.9 km/h   85 % 0 mm
03:45 7.3 °C 4.9 °C 1015.8 hPa ESE 1.9 km/h   85 % 0 mm
03:50 7.3 °C 5.1 °C 1015.8 hPa ESE 1.9 km/h 1.9 km/h 86 % 0 mm
03:55 7.3 °C 4.9 °C 1016.1 hPa Calm     85 % 0 mm
04:00 7.3 °C 4.9 °C 1016.1 hPa Calm     85 % 0 mm
04:05 7.2 °C 4.9 °C 1016.1 hPa ESE 1.9 km/h 1.9 km/h 85 % 0 mm
04:10 7.2 °C 4.8 °C 1015.8 hPa ESE 1.9 km/h   85 % 0 mm
04:15 7.1 °C 4.7 °C 1015.8 hPa ESE 1.9 km/h 1.9 km/h 85 % 0 mm
04:21 6.9 °C 4.7 °C 1015.8 hPa Calm     86 % 0 mm
04:26 6.7 °C 4.5 °C 1015.8 hPa ESE 1.9 km/h   86 % 0 mm
04:31 6.6 °C 4.6 °C 1015.8 hPa ESE 1.9 km/h   87 % 0 mm
04:36 6.6 °C 4.6 °C 1015.8 hPa Calm     87 % 0 mm
04:41 6.6 °C 4.6 °C 1016.1 hPa Calm     87 % 0 mm
04:46 6.6 °C 4.6 °C 1016.1 hPa Calm     87 % 0 mm
04:51 6.5 °C 4.5 °C 1016.1 hPa Calm     87 % 0 mm
04:56 6.4 °C 4.4 °C 1016.1 hPa Calm     87 % 0 mm
05:01 6.3 °C 4.3 °C 1016.1 hPa Calm     87 % 0 mm
05:06 6.1 °C 4.1 °C 1016.1 hPa Calm     87 % 0 mm
05:11 5.9 °C 4.1 °C 1015.8 hPa Calm     88 % 0 mm
05:16 5.9 °C 4.1 °C 1015.8 hPa Calm     88 % 0 mm
05:21 5.8 °C 4.2 °C 1015.8 hPa Calm     89 % 0 mm
05:26 5.9 °C 4.3 °C 1015.8 hPa Calm     89 % 0 mm
05:31 5.9 °C 4.1 °C 1015.8 hPa Calm     88 % 0 mm
05:36 5.9 °C 4.3 °C 1015.8 hPa Calm     89 % 0 mm
05:41 6 °C 4.2 °C 1015.8 hPa Calm     88 % 0 mm
05:46 5.9 °C 4.1 °C 1015.8 hPa Calm     88 % 0 mm
05:51 6 °C 4.2 °C 1015.8 hPa Calm     88 % 0 mm
05:56 5.9 °C 4.1 °C 1016.1 hPa ESE 1.9 km/h   88 % 0 mm
06:01 5.8 °C 4 °C 1016.1 hPa Calm     88 % 0 mm
06:06 5.7 °C 3.8 °C 1016.1 hPa Calm     88 % 0 mm
06:11 5.5 °C 3.7 °C 1016.1 hPa Calm     88 % 0 mm
06:16 5.4 °C 3.7 °C 1016.1 hPa Calm     89 % 0 mm
06:21 5.2 °C 3.4 °C 1016.1 hPa ESE 1.6 km/h   88 % 0 mm
06:26 5.1 °C 3.4 °C 1016.1 hPa Calm     89 % 0 mm
06:31 5.1 °C 3.4 °C 1016.1 hPa Calm     89 % 0 mm
06:36 5 °C 3.5 °C 1016.5 hPa Calm     90 % 0 mm
06:41 5 °C 3.5 °C 1016.5 hPa Calm     90 % 0 mm
06:46 4.9 °C 3.4 °C 1016.5 hPa Calm     90 % 0 mm
06:51 4.9 °C 3.6 °C 1016.5 hPa Calm     91 % 0 mm
06:56 4.9 °C 3.4 °C 1016.5 hPa Calm     90 % 0 mm
07:01 5.1 °C 3.7 °C 1016.5 hPa Calm     91 % 0 mm
07:06 5.2 °C 3.8 °C 1016.5 hPa ESE 1.9 km/h 1.9 km/h 91 % 0 mm
07:11 5.4 °C 3.9 °C 1016.5 hPa Calm     90 % 0 mm
07:16 5.7 °C 4.2 °C 1016.1 hPa Calm     90 % 0 mm
07:21 5.8 °C 4.2 °C 1016.1 hPa Calm     89 % 0 mm
07:26 6.1 °C 4.4 °C 1016.1 hPa ESE 1.9 km/h   89 % 0 mm
07:31 6.3 °C 4.4 °C 1016.1 hPa Calm     88 % 0 mm
07:36 6.4 °C 4.6 °C 1016.1 hPa Calm     88 % 0 mm
07:41 6.6 °C 4.7 °C 1016.1 hPa Calm     88 % 0 mm
07:46 6.8 °C 5 °C 1016.1 hPa Calm     88 % 0 mm
07:51 7.2 °C 5.1 °C 1016.1 hPa Calm     86 % 0 mm
07:56 7.6 °C 5.2 °C 1016.1 hPa Calm     85 % 0 mm
08:01 7.9 °C 5.6 °C 1016.1 hPa Calm     85 % 0 mm
08:06 8.6 °C 6.1 °C 1016.1 hPa Calm     84 % 0 mm
08:11 9.4 °C 6.3 °C 1016.1 hPa Calm     81 % 0 mm
08:16 10 °C 6.7 °C 1015.8 hPa Calm     80 % 0 mm
08:22 10.6 °C 6.7 °C 1015.8 hPa Calm   0.3 km/h 77 % 0 mm
08:27 10.9 °C 6.8 °C 1016.1 hPa Calm     76 % 0 mm
08:32 11.3 °C 6.8 °C 1016.1 hPa Calm     74 % 0 mm
08:37 11.8 °C 7.1 °C 1016.1 hPa Calm     73 % 0 mm
08:42 12.1 °C 7 °C 1016.1 hPa Calm     71 % 0 mm
08:47 12.3 °C 7.2 °C 1016.1 hPa SSW 1.9 km/h 1.9 km/h 71 % 0 mm
08:52 12.4 °C 7.1 °C 1016.1 hPa Calm     70 % 0 mm
08:57 12.7 °C 6.7 °C 1016.1 hPa SE 3.2 km/h 3.2 km/h 67 % 0 mm
09:02 12.9 °C 6.7 °C 1016.1 hPa Calm     66 % 0 mm
09:07 13.1 °C 6.9 °C 1015.8 hPa Calm     66 % 0 mm
09:12 13.2 °C 6.5 °C 1015.8 hPa Calm     64 % 0 mm
09:17 13.6 °C 7.2 °C 1015.8 hPa Calm     65 % 0 mm
09:22 13.9 °C 6.7 °C 1015.8 hPa Calm     62 % 0 mm
09:27 14.2 °C 6.8 °C 1015.5 hPa Calm     61 % 0 mm
09:32 14.4 °C 6.8 °C 1015.5 hPa Calm     60 % 0 mm
09:37 14.7 °C 6.6 °C 1015.5 hPa SSW 1.9 km/h 1.9 km/h 58 % 0 mm
09:42 14.8 °C 6.3 °C 1015.5 hPa ENE 3.7 km/h 3.7 km/h 57 % 0 mm
09:47 14.7 °C 5.8 °C 1015.5 hPa Calm     55 % 0 mm
09:52 15 °C 6.6 °C 1015.5 hPa SE 1.9 km/h   57 % 0 mm
09:57 15.3 °C 6.1 °C 1015.1 hPa West 1.9 km/h 1.9 km/h 54 % 0 mm
10:02 15.4 °C 6.4 °C 1015.1 hPa Calm     55 % 0 mm
10:07 15.9 °C 6.6 °C 1015.1 hPa East 3.2 km/h 3.2 km/h 54 % 0 mm
10:12 15.8 °C 6.2 °C 1015.1 hPa WNW 5.6 km/h 5.6 km/h 53 % 0 mm
10:17 15.6 °C 6.1 °C 1015.5 hPa NW 1.9 km/h   53 % 0 mm
10:22 15.8 °C 6.6 °C 1015.1 hPa SSE 1.9 km/h 1.9 km/h 54 % 0 mm
10:27 16.2 °C 6.3 °C 1015.1 hPa NW 1.9 km/h 1.9 km/h 52 % 0 mm
10:32 16.2 °C 6.1 °C 1015.1 hPa Calm     51 % 0 mm
10:37 16.3 °C 6.4 °C 1014.8 hPa Calm     52 % 0 mm
10:42 16.6 °C 6.4 °C 1014.8 hPa NW 1.9 km/h   51 % 0 mm
10:47 16.4 °C 5.7 °C 1014.8 hPa Calm     49 % 0 mm
10:52 16.4 °C 5.7 °C 1014.8 hPa NNW 5.6 km/h 5.6 km/h 49 % 0 mm
10:57 16.6 °C 5.5 °C 1014.4 hPa NW 1.9 km/h 1.9 km/h 48 % 0 mm
11:02 16.7 °C 5.7 °C 1014.4 hPa West 1.9 km/h   48 % 0 mm
11:07 17 °C 6.5 °C 1014.8 hPa NW 1.9 km/h   50 % 0 mm
11:12 17.3 °C 5.3 °C 1014.8 hPa NW 1.9 km/h   45 % 0 mm
11:15 17.3 °C 5.2 °C 1014.8 hPa Calm     45 % 0 mm
11:20 17.3 °C 4.6 °C 1014.8 hPa Calm     43 % 0 mm
11:25 17.5 °C 5.4 °C 1014.4 hPa SW 1.9 km/h 1.9 km/h 45 % 0 mm
11:30 17.9 °C 5.2 °C 1014.1 hPa ESE 1.6 km/h   43 % 0 mm
11:35 18.3 °C 4.8 °C 1014.1 hPa SE 3.7 km/h 3.7 km/h 41 % 0 mm
11:40 18.6 °C 3.2 °C 1014.1 hPa Calm   0.5 km/h 36 % 0 mm
11:45 18.5 °C 2.3 °C 1013.8 hPa NW 1.9 km/h 1.9 km/h 34 % 0 mm
11:50 18.6 °C 3.2 °C 1013.4 hPa Calm     36 % 0 mm
11:55 18.8 °C 1.7 °C 1013.4 hPa ENE 1.9 km/h   32 % 0 mm
12:00 18.6 °C 1.6 °C 1013.1 hPa Calm     32 % 0 mm
12:05 18.9 °C 0.9 °C 1013.1 hPa NW 3.7 km/h 3.7 km/h 30 % 0 mm
12:10 19 °C 0.6 °C 1013.1 hPa NNW 5.6 km/h 5.6 km/h 29 % 0 mm
12:15 18.8 °C -0.6 °C 1012.8 hPa NW 3.7 km/h 3.7 km/h 27 % 0 mm
12:20 18.8 °C 0.9 °C 1012.4 hPa Calm     30 % 0 mm
12:25 18.9 °C -0.5 °C 1012.4 hPa NW 3.7 km/h 3.7 km/h 27 % 0 mm
12:30 19.1 °C 0.7 °C 1012.4 hPa Calm     29 % 0 mm
12:35 19.3 °C 2.2 °C 1012.1 hPa SSW 3.7 km/h 3.7 km/h 32 % 0 mm
12:40 19.8 °C 1.7 °C 1012.1 hPa West 1.9 km/h 1.9 km/h 30 % 0 mm
12:45 19.7 °C 1.2 °C 1011.7 hPa West 1.9 km/h   29 % 0 mm
12:50 19.8 °C 1.7 °C 1012.1 hPa NW 3.2 km/h 3.2 km/h 30 % 0 mm
12:55 19.9 °C 1.8 °C 1012.1 hPa NE 3.7 km/h 3.7 km/h 30 % 0 mm
13:00 20.1 °C 1 °C 1012.1 hPa NW 1.9 km/h   28 % 0 mm
13:05 20.1 °C 1.4 °C 1011.7 hPa North 9.3 km/h 9.3 km/h 29 % 0 mm
13:10 20.1 °C 2 °C 1011.7 hPa NW 5.6 km/h 5.6 km/h 30 % 0 mm
13:15 20.1 °C 2 °C 1011.7 hPa NW 3.2 km/h 3.2 km/h 30 % 0 mm
13:20 20.3 °C 3.1 °C 1011.4 hPa NW 5.6 km/h 5.6 km/h 32 % 0 mm
13:25 20.4 °C 2.3 °C 1011.4 hPa NW 1.9 km/h 2.1 km/h 30 % 0 mm
13:30 20.5 °C 1.8 °C 1011.4 hPa West 5.6 km/h 5.6 km/h 29 % 0 mm
13:35 20.6 °C 2.4 °C 1011.1 hPa NNW 4.8 km/h 4.8 km/h 30 % 0 mm
13:40 20.7 °C 2.9 °C 1011.1 hPa WNW 1.9 km/h 1.9 km/h 31 % 0 mm
13:45 20.8 °C 2.6 °C 1011.1 hPa NNW 4.8 km/h 4.8 km/h 30 % 0 mm
13:50 21 °C 3.2 °C 1010.7 hPa NW 3.7 km/h 3.7 km/h 31 % 0 mm
13:55 20.9 °C 4.1 °C 1010.7 hPa NW 5.6 km/h 5.6 km/h 33 % 0 mm
14:00 20.8 °C 4.4 °C 1010.4 hPa WNW 5.6 km/h 5.6 km/h 34 % 0 mm
14:05 20.9 °C 4.8 °C 1010 hPa NW 4.8 km/h 4.8 km/h 35 % 0 mm
14:10 20.9 °C 5.3 °C 1010 hPa WNW 3.7 km/h 3.7 km/h 36 % 0 mm
14:29 20.9 °C 4.9 °C 1009.4 hPa NW 3.7 km/h 3.7 km/h 35 % 0 mm
14:48 20.8 °C 4.8 °C 1009 hPa NNE 5.6 km/h 5.6 km/h 35 % 0 mm
14:53 20.8 °C 4.7 °C 1008.7 hPa Calm     35 % 0 mm
14:58 20.7 °C 4.2 °C 1008.4 hPa WSW 1.9 km/h   34 % 0 mm
15:03 20.6 °C 4.9 °C 1008 hPa Calm     36 % 0 mm
15:08 20.5 °C 5.7 °C 1007.7 hPa SE 1.9 km/h   38 % 0 mm
15:13 20.3 °C 5.9 °C 1007 hPa SE 1.9 km/h   39 % 0 mm
15:18 20.1 °C 5.7 °C 1007 hPa Calm     39 % 0 mm
15:23 19.8 °C 5.8 °C 1007.7 hPa SE 1.6 km/h 1.6 km/h 40 % 0 mm
15:28 19.7 °C 5.7 °C 1008 hPa NW 3.7 km/h 3.7 km/h 40 % 0 mm
15:33 19.6 °C 5.9 °C 1008 hPa WNW 1.9 km/h 1.9 km/h 41 % 0 mm
15:38 19.4 °C 5.8 °C 1008 hPa Calm     41 % 0 mm
15:43 19.3 °C 5 °C 1008 hPa WNW 5.6 km/h 5.6 km/h 39 % 0 mm
15:48 19.1 °C 4.1 °C 1008.4 hPa NNW 3.7 km/h 3.7 km/h 37 % 0 mm
15:53 18.9 °C 3.6 °C 1008.4 hPa NNW 8 km/h 8 km/h 36 % 0 mm
15:58 18.8 °C 2.6 °C 1008.4 hPa NNW 3.2 km/h 3.2 km/h 34 % 0 mm
16:03 18.7 °C 2.5 °C 1008.4 hPa NW 3.2 km/h 3.2 km/h 34 % 0 mm
16:08 18.7 °C 2.5 °C 1008.7 hPa West 3.7 km/h 3.7 km/h 34 % 0 mm
16:13 18.7 °C 2.1 °C 1008.4 hPa SSW 5.6 km/h 5.6 km/h 33 % 0 mm
16:18 18.6 °C 2.4 °C 1008.7 hPa West 1.9 km/h 1.9 km/h 34 % 0 mm
16:23 18.5 °C 2.7 °C 1008.4 hPa WNW 3.7 km/h 3.7 km/h 35 % 0 mm
16:28 18.4 °C 2.7 °C 1008.4 hPa WNW 5.6 km/h 5.6 km/h 35 % 0 mm
16:33 18.1 °C 2.4 °C 1008.4 hPa Calm   0.2 km/h 35 % 0 mm
16:38 17.8 °C 2.6 °C 1008 hPa Calm     36 % 0 mm
16:43 17.6 °C 2.3 °C 1008 hPa Calm     36 % 0 mm
16:48 17.4 °C 2.9 °C 1008.4 hPa NW 1.9 km/h   38 % 0 mm
16:53 17.3 °C 2.8 °C 1008 hPa Calm     38 % 0 mm
16:58 17.2 °C 2.7 °C 1008 hPa Calm     38 % 0 mm
17:03 17.1 °C 2.7 °C 1007.7 hPa Calm     38 % 0 mm
17:08 16.9 °C 3.9 °C 1007.7 hPa Calm     42 % 0 mm
17:13 16.7 °C 3.7 °C 1007.7 hPa Calm     42 % 0 mm
17:18 16.4 °C 5.1 °C 1007.7 hPa Calm     47 % 0 mm
17:23 16.2 °C 5.4 °C 1007.7 hPa Calm     49 % 0 mm
17:28 15.8 °C 4.8 °C 1007.7 hPa Calm     48 % 0 mm
17:34 15.6 °C 4.9 °C 1007.7 hPa NNW 1.9 km/h   49 % 0 mm
17:39 15.3 °C 4.7 °C 1007.3 hPa Calm     49 % 0 mm
17:44 15.1 °C 5.3 °C 1007 hPa SE 1.9 km/h   52 % 0 mm
17:49 14.7 °C 5.2 °C 1006.7 hPa ESE 1.9 km/h 1.9 km/h 53 % 0 mm
17:54 14.5 °C 4.8 °C 1006.3 hPa ESE 1.9 km/h 1.9 km/h 52 % 0 mm
17:59 14.4 °C 4.2 °C 1006.7 hPa Calm     50 % 0 mm
18:04 14.4 °C 4.4 °C 1006.7 hPa Calm     51 % 0 mm
18:09 14.5 °C 4.2 °C 1006.7 hPa Calm     50 % 0 mm
18:14 14.5 °C 4.8 °C 1007 hPa Calm     52 % 0 mm
18:19 14.4 °C 4.9 °C 1007 hPa Calm     53 % 0 mm
18:24 14.1 °C 5.2 °C 1007 hPa Calm     55 % 0 mm
18:29 13.8 °C 5.2 °C 1007 hPa Calm     56 % 0 mm
18:34 13.5 °C 4.9 °C 1007 hPa Calm     56 % 0 mm
18:39 13.3 °C 5.5 °C 1007 hPa SE 1.9 km/h 1.9 km/h 59 % 0 mm
18:44 13.1 °C 5.2 °C 1007 hPa Calm     59 % 0 mm
18:49 12.6 °C 5.5 °C 1007 hPa Calm     62 % 0 mm
18:54 12.2 °C 4.9 °C 1006.7 hPa Calm     61 % 0 mm
18:59 12.2 °C 4.6 °C 1006.7 hPa Calm     60 % 0 mm
19:04 12.1 °C 4.6 °C 1006.7 hPa SE 1.9 km/h   60 % 0 mm
19:09 11.9 °C 4.6 °C 1006.7 hPa Calm     61 % 0 mm
19:14 11.6 °C 4.7 °C 1006.7 hPa Calm     63 % 0 mm
19:19 11.3 °C 4.6 °C 1006.7 hPa Calm     63 % 0 mm
19:24 11.2 °C 4.4 °C 1007 hPa Calm     63 % 0 mm
19:29 11.1 °C 4.6 °C 1007 hPa Calm     64 % 0 mm
19:34 10.9 °C 4.4 °C 1007 hPa Calm     64 % 0 mm
19:39 10.9 °C 4.6 °C 1007 hPa Calm     65 % 0 mm
19:44 10.9 °C 4.4 °C 1007.3 hPa Calm     64 % 0 mm
19:49 10.8 °C 4.9 °C 1007.3 hPa Calm     67 % 0 mm
19:54 10.7 °C 4.6 °C 1007.3 hPa Calm     66 % 0 mm
19:59 10.6 °C 4.7 °C 1007.3 hPa Calm     67 % 0 mm
20:04 10.6 °C 5.1 °C 1007.7 hPa Calm     69 % 0 mm
20:09 10.5 °C 4.6 °C 1007.7 hPa SSE 1.6 km/h   67 % 0 mm
20:14 10.6 °C 4.2 °C 1007.7 hPa SE 1.9 km/h 1.9 km/h 65 % 0 mm
20:19 10.5 °C 4.4 °C 1008 hPa East 1.9 km/h 1.9 km/h 66 % 0 mm
20:24 10.4 °C 4.3 °C 1008 hPa Calm     66 % 0 mm
20:29 10.4 °C 4.2 °C 1008.4 hPa NW 5.6 km/h 5.6 km/h 65 % 0 mm
20:34 10.7 °C 4.2 °C 1008.4 hPa NW 3.7 km/h 3.7 km/h 64 % 0 mm
20:39 11 °C 3.8 °C 1008.4 hPa WNW 1.9 km/h 1.9 km/h 61 % 0 mm
20:44 11.4 °C 3.7 °C 1008.4 hPa NW 7.4 km/h 7.4 km/h 59 % 0 mm
20:49 11.8 °C 3.8 °C 1008.4 hPa NW 5.6 km/h 5.6 km/h 58 % 0 mm
20:54 12 °C 4 °C 1008 hPa NW 1.9 km/h 1.9 km/h 58 % 0 mm
20:59 12.1 °C 3.8 °C 1008.4 hPa NW 5.6 km/h 5.6 km/h 57 % 0 mm
21:04 12.1 °C 3.8 °C 1008.4 hPa Calm     57 % 0 mm
21:09 11.9 °C 3.6 °C 1008.4 hPa NW 1.9 km/h 1.9 km/h 57 % 0 mm
21:14 11.8 °C 3.8 °C 1008.4 hPa NNW 1.9 km/h 1.9 km/h 58 % 0 mm
21:19 11.7 °C 3.7 °C 1008.4 hPa Calm     58 % 0 mm
21:24 11.3 °C 3.8 °C 1008.7 hPa Calm     60 % 0 mm
21:29 10.9 °C 3.9 °C 1008.7 hPa Calm     62 % 0 mm
21:34 10.6 °C 3.8 °C 1008.7 hPa Calm     63 % 0 mm
21:39 10.4 °C 3.9 °C 1009 hPa Calm   0.3 km/h 64 % 0 mm
21:44 10.4 °C 3.9 °C 1009 hPa NW 1.9 km/h 1.9 km/h 64 % 0 mm
21:49 10.4 °C 3.9 °C 1009 hPa NW 3.2 km/h 3.2 km/h 64 % 0 mm
21:54 10.6 °C 4.1 °C 1009 hPa WNW 8 km/h 8 km/h 64 % 0 mm
21:59 10.9 °C 4.1 °C 1009 hPa WNW 5.6 km/h 5.6 km/h 63 % 0 mm
22:04 11 °C 4.2 °C 1009 hPa WNW 5.6 km/h 5.6 km/h 63 % 0 mm
22:09 11.1 °C 4.3 °C 1009.4 hPa NW 5.6 km/h 5.6 km/h 63 % 0 mm
22:14 11.1 °C 4.5 °C 1009.4 hPa NW 5.6 km/h 5.6 km/h 64 % 0 mm
22:19 10.9 °C 4.3 °C 1009.4 hPa NW 1.9 km/h 1.9 km/h 64 % 0 mm
22:24 10.7 °C 4.4 °C 1009.4 hPa WNW 1.9 km/h 1.9 km/h 65 % 0 mm
22:29 10.6 °C 4.4 °C 1009.4 hPa WNW 1.9 km/h 1.9 km/h 66 % 0 mm
22:34 10.4 °C 4.5 °C 1009.7 hPa Calm   0.2 km/h 67 % 0 mm
22:39 10.2 °C 4.4 °C 1009.7 hPa Calm     67 % 0 mm
22:44 10 °C 4.3 °C 1009.7 hPa Calm     68 % 0 mm
22:49 9.8 °C 4.6 °C 1010 hPa Calm     70 % 0 mm
22:54 9.4 °C 4.7 °C 1010 hPa Calm     72 % 0 mm
22:59 9.1 °C 4.4 °C 1010 hPa Calm     73 % 0 mm
23:04 8.7 °C 4.3 °C 1010.4 hPa Calm     74 % 0 mm
23:09 8.3 °C 4.3 °C 1010.4 hPa Calm     76 % 0 mm
23:14 8.1 °C 4.3 °C 1010.4 hPa Calm   1 km/h 77 % 0 mm
23:19 7.8 °C 4.2 °C 1010.7 hPa Calm     78 % 0 mm
23:24 7.7 °C 4.1 °C 1010.7 hPa Calm     78 % 0 mm
23:29 7.6 °C 4 °C 1010.7 hPa Calm     78 % 0 mm
23:34 7.5 °C 3.9 °C 1010.7 hPa Calm     78 % 0 mm
23:39 7.2 °C 3.8 °C 1010.7 hPa Calm     79 % 0 mm
23:44 7.1 °C 3.9 °C 1010.7 hPa Calm     80 % 0 mm
23:50 7.2 °C 4 °C 1010.7 hPa Calm     80 % 0 mm
23:55 7.3 °C 3.9 °C 1010.7 hPa Calm     79 % 0 mm
Park Place, Exeter, Tulare County, California, USA
Compliments of Weather Underground - 2.75 mb